Goodridge, MN (56725)

5:20 PM CDT on April 21, 2015 (GMT -0500)
Thief River Adventist Christian School | | Change Station
CLOSE
Current Station
Personal Weather Station
Location: Thief River Falls, MN
Elevation: 1135 ft
Nearby Weather Stations
Active Advisory: Wind Advisory

Elev 1135 ft 48.11 °N, 96.17 °W | Updated 27 seconds ago

Mostly Cloudy
Mostly Cloudy
37.9 °F
Feels Like 30 °F
N
13.0
Wind Variable Wind from WSW
Gusts 19.1 mph

Today
High -- | Low -- °F
--% Chance of Precip.
Yesterday
High -- | Low -- °F
Precip. -- in
6:22 AM 8:21 PM
Waxing Crescent, 13% visible
Pressure 29.82 in
Visibility 10.0 miles
Clouds Mostly Cloudy 4100 ft
Mostly Cloudy 4800 ft
Windchill 30 °F
Dew Point 24 °F
Humidity 56%
Rainfall 0.01 in
Snow Depth Not available.
UV 2 out of 12
Pollen 9.00 out of 12
Air Quality Not available.
Flu Activity Local Activity
METAR KTVF 212215Z AUTO 34021G30KT 10SM BKN041 BKN048 04/M06 A2982 RMK AO1

More Conditions Fewer Conditions

Pressure 29.82 in
Visibility 10.0 miles
Clouds Mostly Cloudy 4100 ft
Mostly Cloudy 4800 ft
Windchill 30 °F
Dew Point 24 °F
Humidity 56%
Rainfall 0.01 in
Snow Depth Not available.
UV 2 out of 12
Pollen 9.00 out of 12
Air Quality Not available.
Flu Activity Local Activity
METAR KTVF 212215Z AUTO 34021G30KT 10SM BKN041 BKN048 04/M06 A2982 RMK AO1

More Conditions Fewer Conditions

10-Day Weather Forecast

Almanac

Astronomy

Apr. 21, 2015 Rise Set
Actual Time
Civil Twilight
Nautical Twilight
Astronomical Twilight
Moon
Length of Visible Light
Length of Day
Tomorrow will be .
, % of the Moon is Illuminated

Today's Extremes

State Highs State Lows

Community

WunderPhotos

Upload Photos

1,815,563 photos uploaded!

WunderBlogs® & News

Nearby

Air Quality

  Air Quality AQ Index Pollutant
Not available.

Snow Depth

Station Depth Elevation

Earthquake Activity

City Distance Mag. Time & Date
Minimum magnitude displayed is 2.5.

Coastal Water Temperatures

Place Temperature

Stations

Nearby Weather Stations

Station Location Temp. Windchill Dew Point Humidity Wind Precip. Elev Updated Type
                   
Wind Advisory
Statement as of 3:10 PM CDT on April 21, 2015

... Wind Advisory remains in effect until 7 PM CDT this evening...

* timing... until 7 PM CDT

* winds... 25 to 35 mph with gusts to 45 mph

* impacts... waves of 4 to 6 feet may be generated in the Devils
Lake basin and result in roadbed erosion in susceptible areas.

Precautionary/preparedness actions...

A Wind Advisory means that sustained winds of 30 mph or frequent
gusts to 45 mph are expected. Winds this strong can make driving
difficult... especially for high profile vehicles. Use extra
caution.